Time;durP1;ratioP1;P1;durP2;ratioP2;P2;SDS_P1;SDS_P2;PMS_P1;PMS_P2;Temp;Humidity;BMP_temperature;BMP_pressure;BME280_temperature;BME280_humidity;BME280_pressure;Samples;Min_cycle;Max_cycle;Signal;HPM_P1;HPM_P2
2022/12/28 00:02:09;;;;;;;10.05;6.38;;;;;;;9.64;65.11;101883.72;6264510;22;20010;-88
2022/12/28 00:04:35;;;;;;;10.43;6.88;;;;;;;9.60;65.10;101859.94;6287587;22;20004;-87
2022/12/28 00:07:00;;;;;;;10.65;6.95;;;;;;;9.78;64.78;101890.66;6260388;22;20408;-88
2022/12/28 00:09:26;;;;;;;10.52;6.30;;;;;;;9.85;64.75;101910.66;6263816;22;20004;-89
2022/12/28 00:11:51;;;;;;;10.95;6.45;;;;;;;9.55;64.81;101868.34;6242359;22;20035;-88
2022/12/28 00:14:17;;;;;;;9.65;6.30;;;;;;;9.55;64.93;101867.50;6300574;22;20000;-86
2022/12/28 00:16:42;;;;;;;10.15;6.53;;;;;;;9.53;65.23;101894.50;6269930;22;20033;-88
2022/12/28 00:19:13;;;;;;;11.32;6.45;;;;;;;9.51;65.65;101942.09;6268174;22;20027;-87
2022/12/28 00:21:38;;;;;;;11.25;6.80;;;;;;;9.48;65.38;101937.81;6244143;22;20003;-88
2022/12/28 00:24:04;;;;;;;13.38;7.15;;;;;;;9.40;65.09;101917.94;6292880;22;20073;-87
2022/12/28 00:26:31;;;;;;;12.10;7.15;;;;;;;9.01;65.77;101899.50;6264029;22;20004;-88
2022/12/28 00:28:56;;;;;;;13.20;8.07;;;;;;;8.95;66.15;101917.91;6265701;22;20030;-87
2022/12/28 00:31:22;;;;;;;12.45;7.72;;;;;;;9.02;66.47;101952.19;6294544;22;20047;-88
2022/12/28 00:33:48;;;;;;;11.70;7.57;;;;;;;8.93;66.94;101960.09;6261342;22;20450;-88
2022/12/28 00:36:13;;;;;;;12.27;7.22;;;;;;;8.91;66.53;101948.63;6264607;22;20379;-89
2022/12/28 00:38:39;;;;;;;11.00;6.85;;;;;;;8.86;66.51;101951.66;6260458;22;20424;-88
2022/12/28 00:41:05;;;;;;;11.23;6.97;;;;;;;8.81;66.29;101935.06;6263376;22;20003;-89
2022/12/28 00:43:30;;;;;;;12.55;7.25;;;;;;;8.92;66.02;101967.28;6289670;22;19999;-88
2022/12/28 00:45:56;;;;;;;12.55;7.13;;;;;;;8.88;65.63;101961.28;6262739;22;20038;-88
2022/12/28 00:48:21;;;;;;;12.50;7.07;;;;;;;8.83;66.02;102000.19;6239647;22;20022;-88
2022/12/28 00:50:47;;;;;;;10.43;7.10;;;;;;;8.56;65.67;101955.69;6236643;22;20058;-88
2022/12/28 00:53:13;;;;;;;10.32;7.10;;;;;;;8.64;65.55;101985.47;6264617;22;20002;-88
2022/12/28 00:55:38;;;;;;;9.95;6.70;;;;;;;8.34;66.17;101966.31;6267840;22;20022;-86
2022/12/28 00:58:04;;;;;;;11.50;7.37;;;;;;;8.42;66.03;101980.00;6265698;22;20003;-86
2022/12/28 01:00:30;;;;;;;11.77;7.50;;;;;;;8.08;66.70;101949.47;6264227;22;20239;-87
2022/12/28 01:02:55;;;;;;;10.82;7.55;;;;;;;7.82;67.33;101933.50;6264783;22;20057;-86
2022/12/28 01:05:21;;;;;;;12.43;7.60;;;;;;;7.98;67.21;101970.72;6266701;22;20012;-88
2022/12/28 01:07:47;;;;;;;12.02;7.45;;;;;;;7.86;67.64;101985.00;6264345;22;20011;-87
2022/12/28 01:10:12;;;;;;;12.93;7.85;;;;;;;7.75;67.76;102001.84;6263831;22;20007;-88
2022/12/28 01:12:38;;;;;;;10.60;7.20;;;;;;;7.66;67.91;101981.09;6241149;22;20012;-88
2022/12/28 01:15:04;;;;;;;12.25;7.32;;;;;;;7.54;68.06;101969.44;6265906;22;20022;-87
2022/12/28 01:17:30;;;;;;;;;;;;;;;7.56;68.70;102015.66;6267542;22;20081;-87
2022/12/28 01:19:55;;;;;;;12.60;7.80;;;;;;;7.37;69.06;102008.97;6296582;22;19946;-87
2022/12/28 01:22:21;;;;;;;11.43;7.33;;;;;;;7.51;68.93;102031.19;6267924;22;20069;-88
2022/12/28 01:24:47;;;;;;;12.98;7.63;;;;;;;6.92;70.47;102011.16;6291520;22;20230;-88
2022/12/28 01:27:12;;;;;;;12.15;7.53;;;;;;;7.16;70.04;102046.06;6266947;22;20003;-87
2022/12/28 01:29:38;;;;;;;14.73;7.53;;;;;;;7.28;69.68;102052.41;6293299;22;20073;-89
2022/12/28 01:32:04;;;;;;;13.03;7.73;;;;;;;7.27;69.67;102055.16;6269752;22;20018;-85
2022/12/28 01:34:29;;;;;;;13.90;7.95;;;;;;;7.33;69.89;102065.47;6272710;22;20242;-85
2022/12/28 01:36:55;;;;;;;12.65;7.75;;;;;;;7.25;69.60;102031.19;6266863;22;20027;-89
2022/12/28 01:39:20;;;;;;;11.05;7.50;;;;;;;7.31;69.24;102025.44;6291670;22;20328;-87
2022/12/28 01:41:46;;;;;;;11.60;7.33;;;;;;;7.40;69.39;102062.25;6261198;22;20427;-87
2022/12/28 01:44:12;;;;;;;13.77;8.20;;;;;;;7.36;69.27;102076.78;6261539;22;20245;-87
2022/12/28 01:46:48;;;;;;;11.98;7.55;;;;;;;7.28;69.33;102073.81;6289297;22;20019;-88
2022/12/28 01:49:25;;;;;;;13.93;7.68;;;;;;;7.21;69.62;102075.19;6290199;22;20014;-88
2022/12/28 01:52:25;;;;;;;10.93;7.13;;;;;;;7.15;68.38;102078.28;6263948;22;20050;-86
2022/12/28 01:55:06;;;;;;;10.60;6.47;;;;;;;7.18;67.51;102062.84;6286335;22;20027;-87
2022/12/28 01:57:33;;;;;;;10.60;6.13;;;;;;;7.20;66.58;102070.78;6261741;22;20008;-85
2022/12/28 02:00:08;;;;;;;9.90;6.20;;;;;;;7.12;66.88;102063.28;6264722;22;20019;-86
2022/12/28 02:02:34;;;;;;;11.55;6.90;;;;;;;7.05;67.16;102053.13;6265781;22;20007;-87
2022/12/28 02:04:59;;;;;;;9.85;6.28;;;;;;;7.19;66.65;102074.44;6264123;22;19998;-88
2022/12/28 02:07:46;;;;;;;10.85;5.57;;;;;;;7.21;65.60;102083.22;6266202;22;20003;-88
2022/12/28 02:10:12;;;;;;;11.02;6.07;;;;;;;7.14;65.21;102055.13;6265690;22;20046;-88
2022/12/28 02:12:38;;;;;;;11.27;6.35;;;;;;;7.34;65.02;102083.22;6266158;22;20008;-87
2022/12/28 02:15:03;;;;;;;9.98;5.80;;;;;;;7.14;65.07;102092.59;6266885;22;20004;-86
2022/12/28 02:17:29;;;;;;;8.10;5.13;;;;;;;7.10;63.97;102085.75;6263996;22;20000;-88
2022/12/28 02:19:55;;;;;;;8.32;5.13;;;;;;;7.03;62.81;102065.72;6266640;22;20010;-88
2022/12/28 02:22:35;;;;;;;8.13;5.05;;;;;;;7.07;62.88;102080.59;6267598;22;20034;-88
2022/12/28 02:25:25;;;;;;;7.90;4.82;;;;;;;7.14;62.91;102077.41;6293081;22;20047;-88
2022/12/28 02:28:03;;;;;;;8.30;4.60;;;;;;;6.84;61.81;102042.91;6274807;22;19995;-88
2022/12/28 02:30:30;;;;;;;8.70;4.38;;;;;;;6.97;61.06;102038.41;6268926;22;20007;-87
2022/12/28 02:33:11;;;;;;;8.65;4.45;;;;;;;7.17;60.79;102087.03;6269309;22;19987;-87
2022/12/28 02:35:38;;;;;;;7.60;4.57;;;;;;;6.68;61.66;102042.22;6292398;22;20019;-88
2022/12/28 02:38:14;;;;;;;6.95;4.30;;;;;;;6.47;61.59;102053.34;6266771;22;20095;-86
2022/12/28 02:40:47;;;;;;;6.65;3.90;;;;;;;6.62;61.38;102085.38;6266873;22;20029;-87
2022/12/28 02:43:12;;;;;;;8.70;4.30;;;;;;;6.63;60.58;102087.09;6271565;22;20015;-86
2022/12/28 02:51:57;;;;;;;7.00;3.40;;;;;;;6.59;59.00;102099.78;6294889;22;20107;-87
2022/12/28 02:57:21;;;;;;;7.60;3.72;;;;;;;6.62;59.82;102112.09;6295094;22;20037;-87
2022/12/28 02:59:58;;;;;;;6.65;3.55;;;;;;;6.40;59.70;102075.22;6296900;22;20011;-87
2022/12/28 03:02:33;;;;;;;7.53;3.50;;;;;;;6.51;59.79;102110.97;6276161;22;20416;-86
2022/12/28 03:05:12;;;;;;;6.05;3.55;;;;;;;6.49;59.96;102112.03;6303420;22;20003;-85
2022/12/28 03:10:42;;;;;;;5.55;3.05;;;;;;;6.49;58.30;102133.41;6269960;22;20018;-87
2022/12/28 03:13:41;;;;;;;6.22;3.00;;;;;;;6.26;57.71;102094.81;6294518;22;19995;-87
2022/12/28 03:16:09;;;;;;;7.05;3.15;;;;;;;6.44;58.03;102124.81;6282732;22;20015;-88
2022/12/28 03:32:18;;;;;;;6.28;2.22;;;;;;;6.11;56.58;102166.06;6275782;22;20031;-86
2022/12/28 03:34:44;;;;;;;3.88;2.10;;;;;;;5.97;57.10;102161.59;6266740;22;19995;-87
2022/12/28 03:37:33;;;;;;;5.75;2.30;;;;;;;6.01;56.81;102141.75;6264210;22;20010;-85
2022/12/28 03:40:20;;;;;;;6.78;2.42;;;;;;;6.00;57.59;102150.72;6278453;22;20034;-88
2022/12/28 03:45:35;;;;;;;4.57;2.55;;;;;;;5.99;58.02;102153.47;6271763;22;20088;-86
2022/12/28 03:48:01;;;;;;;8.52;3.70;;;;;;;5.76;57.95;102138.81;6292126;22;19996;-86
2022/12/28 03:50:26;;;;;;;8.27;3.58;;;;;;;5.55;58.28;102117.84;6259586;22;19999;-88
2022/12/28 03:52:52;;;;;;;7.72;3.00;;;;;;;5.51;58.58;102127.00;6239217;22;20054;-87
2022/12/28 03:55:18;;;;;;;7.75;3.55;;;;;;;5.59;58.82;102143.38;6266951;22;20011;-85
2022/12/28 03:57:43;;;;;;;8.40;2.72;;;;;;;5.55;58.75;102151.66;6238994;22;20030;-87
2022/12/28 04:00:09;;;;;;;8.87;2.57;;;;;;;5.35;59.17;102147.53;6264350;22;20385;-88
2022/12/28 04:02:35;;;;;;;6.28;2.35;;;;;;;5.44;59.13;102181.66;6291252;22;20233;-86
2022/12/28 04:05:01;;;;;;;4.28;2.00;;;;;;;5.20;59.28;102155.47;6291034;22;20002;-88
2022/12/28 04:07:27;;;;;;;6.70;2.20;;;;;;;5.16;59.07;102156.59;6263120;22;20027;-87
2022/12/28 04:09:52;;;;;;;4.25;1.88;;;;;;;5.43;58.79;102195.91;6264570;22;20014;-87
2022/12/28 04:12:18;;;;;;;4.03;1.90;;;;;;;5.36;57.85;102183.91;6240659;22;19999;-86
2022/12/28 04:14:43;;;;;;;5.40;2.50;;;;;;;5.35;57.72;102188.38;6264658;22;20242;-87
2022/12/28 04:17:09;;;;;;;4.40;2.60;;;;;;;5.39;57.71;102199.75;6267876;22;20247;-88
2022/12/28 04:19:35;;;;;;;4.45;2.03;;;;;;;5.27;57.47;102196.84;6272503;22;20093;-88
2022/12/28 04:22:00;;;;;;;5.17;1.90;;;;;;;5.29;56.56;102188.72;6298632;22;20014;-88
2022/12/28 04:24:26;;;;;;;4.70;1.92;;;;;;;5.21;56.90;102191.00;6300415;22;20273;-87
2022/12/28 04:26:51;;;;;;;7.50;1.95;;;;;;;5.31;56.66;102207.31;6271068;22;20413;-85
2022/12/28 04:29:17;;;;;;;5.00;2.08;;;;;;;5.18;56.58;102208.03;6259467;22;19999;-86
2022/12/28 04:31:42;;;;;;;7.00;2.20;;;;;;;5.07;56.90;102194.44;6263817;22;20000;-87
2022/12/28 04:34:08;;;;;;;4.80;2.10;;;;;;;5.22;56.74;102219.38;6260540;22;20008;-87
2022/12/28 04:36:33;;;;;;;3.92;2.03;;;;;;;5.06;56.54;102192.75;6267655;22;20057;-88
2022/12/28 04:38:59;;;;;;;6.37;1.90;;;;;;;4.97;56.90;102198.59;6264182;22;19999;-87
2022/12/28 04:41:25;;;;;;;5.15;2.15;;;;;;;5.07;56.82;102224.63;6266953;22;20090;-88
2022/12/28 04:43:50;;;;;;;5.55;2.30;;;;;;;5.11;57.16;102221.81;6265738;22;19996;-86
2022/12/28 04:46:16;;;;;;;8.38;2.72;;;;;;;4.92;57.32;102219.31;6264247;22;20329;-84
2022/12/28 04:48:42;;;;;;;4.85;2.30;;;;;;;5.02;57.84;102244.50;6239451;22;20106;-88
2022/12/28 04:51:09;;;;;;;5.10;1.95;;;;;;;4.97;58.59;102252.75;6266451;22;20003;-86
2022/12/28 04:53:38;;;;;;;5.25;2.20;;;;;;;4.90;57.90;102239.88;6262570;22;20027;-87
2022/12/28 04:56:05;;;;;;;4.55;2.10;;;;;;;5.00;57.43;102236.59;6263327;22;20008;-88
2022/12/28 04:58:31;;;;;;;5.30;2.17;;;;;;;4.79;57.60;102211.16;6262804;22;20278;-87
2022/12/28 05:01:07;;;;;;;4.32;1.95;;;;;;;5.19;56.97;102263.06;6262031;22;20027;-87
2022/12/28 05:03:33;;;;;;;5.07;1.98;;;;;;;5.09;57.29;102245.88;6265956;22;20085;-86
2022/12/28 05:06:01;;;;;;;7.35;2.03;;;;;;;5.29;56.81;102253.63;6288929;22;20000;-86
2022/12/28 05:08:27;;;;;;;5.18;2.25;;;;;;;5.25;56.90;102262.72;6262054;22;20007;-87
2022/12/28 05:10:53;;;;;;;5.85;2.08;;;;;;;5.07;56.30;102232.63;6263408;22;20023;-87
2022/12/28 05:13:18;;;;;;;4.33;1.80;;;;;;;5.32;56.40;102267.72;6288530;22;20121;-86
2022/12/28 05:15:44;;;;;;;5.07;1.90;;;;;;;5.31;55.72;102255.31;6238448;22;20230;-87
2022/12/28 05:18:09;;;;;;;4.77;2.47;;;;;;;5.40;55.86;102255.66;6263636;22;20246;-86
2022/12/28 05:20:35;;;;;;;8.37;3.30;;;;;;;5.35;56.29;102241.72;6261694;22;20222;-87
2022/12/28 05:23:00;;;;;;;6.20;2.77;;;;;;;5.34;56.23;102265.81;6233562;22;20234;-87
2022/12/28 05:25:26;;;;;;;7.83;2.53;;;;;;;5.51;55.17;102268.38;6261907;22;20230;-86
2022/12/28 05:27:53;;;;;;;4.78;1.75;;;;;;;5.36;54.40;102237.25;6262588;22;20241;-86
2022/12/28 05:30:19;;;;;;;5.15;1.70;;;;;;;5.52;54.02;102270.09;6234250;22;20019;-88
2022/12/28 05:32:44;;;;;;;5.25;2.63;;;;;;;5.39;54.18;102250.41;6259788;22;20003;-87
2022/12/28 05:35:10;;;;;;;5.40;2.30;;;;;;;5.65;54.07;102275.59;6261299;22;20046;-86
2022/12/28 05:37:35;;;;;;;5.05;1.63;;;;;;;5.56;53.66;102260.97;6289671;22;20246;-86
2022/12/28 05:40:01;;;;;;;5.03;1.55;;;;;;;5.44;53.62;102248.34;6268005;22;20018;-84
2022/12/28 05:42:27;;;;;;;6.82;1.92;;;;;;;5.62;53.54;102281.97;6235331;22;20011;-87
2022/12/28 05:44:52;;;;;;;5.53;1.77;;;;;;;5.66;53.45;102287.97;6258500;22;20009;-87
2022/12/28 05:47:18;;;;;;;8.70;2.10;;;;;;;5.81;53.21;102300.44;6266611;22;19999;-86
2022/12/28 05:49:43;;;;;;;5.10;1.80;;;;;;;5.83;53.21;102306.53;6266780;22;20003;-84
2022/12/28 05:52:09;;;;;;;6.20;2.10;;;;;;;5.96;52.47;102290.69;6273147;22;20230;-87
2022/12/28 05:54:34;;;;;;;6.00;1.90;;;;;;;5.97;52.60;102291.53;6272157;22;20026;-87
2022/12/28 05:57:00;;;;;;;7.03;1.70;;;;;;;6.15;52.39;102298.44;6271764;22;20011;-86
2022/12/28 05:59:26;;;;;;;7.07;1.63;;;;;;;5.95;51.98;102267.59;6263102;22;20076;-85
2022/12/28 06:01:51;;;;;;;7.20;2.03;;;;;;;6.18;51.54;102292.06;6262017;22;20010;-88
2022/12/28 06:04:17;;;;;;;5.05;1.90;;;;;;;6.25;51.41;102304.09;6285414;22;20003;-87
2022/12/28 06:06:43;;;;;;;;;;;;;;;6.31;52.05;102323.28;6259446;22;20004;-85
2022/12/28 06:09:09;;;;;;;6.90;2.40;;;;;;;6.36;51.82;102304.28;6285689;22;19903;-87
2022/12/28 06:11:34;;;;;;;5.67;2.30;;;;;;;6.51;51.49;102314.06;6260776;22;19995;-86
2022/12/28 06:14:02;;;;;;;7.65;2.60;;;;;;;6.40;51.41;102294.31;6261775;22;20536;-88
2022/12/28 06:16:29;;;;;;;6.05;2.33;;;;;;;6.34;51.25;102284.81;6238411;22;20411;-88
2022/12/28 06:18:54;;;;;;;8.68;2.22;;;;;;;6.46;51.03;102300.13;6262037;22;20059;-88
2022/12/28 06:21:28;;;;;;;4.55;2.00;;;;;;;6.46;51.09;102293.91;6259922;22;20277;-87
2022/12/28 06:23:56;;;;;;;5.03;1.98;;;;;;;6.60;50.44;102299.25;6261601;22;20003;-87
2022/12/28 06:26:22;;;;;;;6.05;1.95;;;;;;;6.65;50.74;102323.03;6258191;22;19999;-88
2022/12/28 06:28:47;;;;;;;4.63;1.90;;;;;;;6.58;50.72;102313.66;6258798;22;20012;-87
2022/12/28 06:31:14;;;;;;;5.18;2.20;;;;;;;6.59;50.55;102320.75;6257862;22;20000;-87
2022/12/28 06:33:40;;;;;;;7.72;2.42;;;;;;;6.69;50.27;102311.19;6232122;22;20003;-88
2022/12/28 06:36:23;;;;;;;9.55;2.30;;;;;;;6.67;50.07;102307.75;6261005;22;20003;-87
2022/12/28 06:38:49;;;;;;;5.22;2.30;;;;;;;6.69;50.10;102327.22;6263781;22;20092;-87
2022/12/28 06:41:15;;;;;;;10.70;2.17;;;;;;;6.77;49.86;102308.91;6264541;22;19995;-87
2022/12/28 06:43:41;;;;;;;7.53;2.08;;;;;;;6.93;49.75;102330.19;6268065;22;20003;-86
2022/12/28 06:46:07;;;;;;;5.38;2.30;;;;;;;6.98;49.65;102331.63;6261702;22;20000;-85
2022/12/28 06:48:33;;;;;;;7.50;2.25;;;;;;;7.23;49.51;102353.28;6258222;22;20294;-87
2022/12/28 06:51:15;;;;;;;;;;;;;;;7.35;48.30;102355.16;6262623;22;20007;-87
2022/12/28 06:53:40;;;;;;;5.65;2.03;;;;;;;7.37;48.16;102362.16;6291657;22;19899;-87
2022/12/28 06:56:14;;;;;;;4.80;2.00;;;;;;;7.35;48.25;102353.38;6256865;22;20000;-88
2022/12/28 06:58:40;;;;;;;4.15;2.03;;;;;;;7.22;47.60;102320.31;6262242;22;20011;-86
2022/12/28 07:01:07;;;;;;;7.38;2.40;;;;;;;7.47;47.97;102350.81;6262373;22;20437;-87
2022/12/28 07:03:32;;;;;;;5.85;2.20;;;;;;;7.53;47.18;102350.44;6260223;22;20385;-87
2022/12/28 07:06:02;;;;;;;6.13;1.90;;;;;;;7.53;47.22;102339.72;6260404;22;20058;-87
2022/12/28 07:08:28;;;;;;;5.70;2.20;;;;;;;7.57;47.63;102368.03;6261657;22;20023;-87
2022/12/28 07:10:53;;;;;;;5.75;2.10;;;;;;;7.68;47.28;102368.19;6262656;22;20004;-87
2022/12/28 07:13:19;;;;;;;6.35;2.50;;;;;;;7.66;46.97;102335.31;6258555;22;20023;-88
2022/12/28 07:15:44;;;;;;;4.57;2.13;;;;;;;7.70;46.78;102326.13;6263075;22;20149;-87
2022/12/28 07:18:10;;;;;;;6.32;2.20;;;;;;;8.11;46.74;102359.13;6266811;22;20014;-86
2022/12/28 07:20:35;;;;;;;4.78;2.15;;;;;;;8.13;46.05;102336.63;6266673;22;20018;-87
2022/12/28 07:23:01;;;;;;;4.37;1.97;;;;;;;8.08;45.85;102362.88;6267315;22;20000;-85
2022/12/28 07:25:27;;;;;;;6.18;2.13;;;;;;;8.27;45.75;102357.13;6261624;22;20230;-87
2022/12/28 07:27:52;;;;;;;7.43;2.15;;;;;;;8.35;45.56;102351.22;6241723;22;20007;-87
2022/12/28 07:30:18;;;;;;;5.10;2.00;;;;;;;8.75;44.89;102383.34;6267077;22;19996;-86
2022/12/28 07:32:43;;;;;;;6.55;2.00;;;;;;;8.86;44.40;102391.50;6264345;22;20053;-87
2022/12/28 07:35:09;;;;;;;3.93;1.93;;;;;;;8.90;43.66;102350.09;6266064;22;20003;-87
2022/12/28 07:37:35;;;;;;;8.85;2.63;;;;;;;9.08;43.21;102372.94;6264501;22;20261;-87
2022/12/28 07:40:00;;;;;;;9.32;2.30;;;;;;;9.41;42.76;102367.91;6264068;22;20011;-86
2022/12/28 07:42:28;;;;;;;8.27;2.03;;;;;;;9.46;41.79;102346.97;6263650;22;20007;-87
2022/12/28 07:44:53;;;;;;;7.40;2.17;;;;;;;9.78;41.45;102363.38;6266115;22;20026;-88
2022/12/28 07:47:19;;;;;;;7.80;2.50;;;;;;;9.99;41.18;102366.28;6269877;22;19999;-87
2022/12/28 07:49:44;;;;;;;6.90;2.40;;;;;;;10.12;40.19;102361.72;6238263;22;20075;-87
2022/12/28 07:52:10;;;;;;;7.03;2.30;;;;;;;10.38;39.13;102358.03;6262804;22;20000;-87
2022/12/28 07:54:36;;;;;;;6.18;2.30;;;;;;;11.27;36.87;102369.84;6268082;22;20249;-86
2022/12/28 07:57:01;;;;;;;6.68;2.22;;;;;;;11.40;36.37;102357.09;6271213;22;20004;-87
2022/12/28 07:59:27;;;;;;;5.70;2.22;;;;;;;11.46;36.14;102380.00;6241261;22;20025;-88
2022/12/28 08:01:52;;;;;;;6.57;2.40;;;;;;;11.09;36.92;102370.34;6290520;22;20000;-88
2022/12/28 08:04:18;;;;;;;6.93;2.25;;;;;;;11.48;36.65;102388.81;6288747;22;20023;-88
2022/12/28 08:06:44;;;;;;;5.45;2.63;;;;;;;11.65;36.05;102365.88;6265836;22;20000;-89
2022/12/28 08:09:11;;;;;;;9.10;2.63;;;;;;;12.00;35.44;102371.06;6265787;22;19999;-86
2022/12/28 08:11:38;;;;;;;6.75;2.70;;;;;;;12.51;34.66;102385.66;6262543;22;20004;-88
2022/12/28 08:14:04;;;;;;;8.48;2.90;;;;;;;13.06;32.74;102391.63;6241744;22;20003;-88
2022/12/28 08:16:32;;;;;;;5.78;2.20;;;;;;;12.56;32.38;102365.38;6264468;22;20056;-86
2022/12/28 08:18:57;;;;;;;5.25;2.35;;;;;;;14.61;31.03;102388.38;6236233;22;20000;-89
2022/12/28 08:21:25;;;;;;;8.05;2.70;;;;;;;16.24;28.56;102345.22;6267936;22;20063;-88
2022/12/28 08:23:50;;;;;;;6.68;2.80;;;;;;;16.85;27.25;102355.19;6266328;22;20003;-89
2022/12/28 08:26:19;;;;;;;;;;;;;;;17.01;26.88;102392.47;6261589;22;20004;-87
2022/12/28 08:28:50;;;;;;;7.20;1.77;;;;;;;16.33;26.09;102371.44;6293074;22;19909;-87
2022/12/28 08:31:18;;;;;;;5.65;2.25;;;;;;;16.53;26.15;102380.25;6266978;22;20004;-88
2022/12/28 08:33:43;;;;;;;5.88;2.50;;;;;;;16.81;25.47;102396.41;6269184;22;19995;-88
2022/12/28 08:36:09;;;;;;;;;;;;;;;16.33;26.05;102395.00;6272628;22;20030;-87
2022/12/28 08:38:35;;;;;;;;;;;;;;;16.63;25.29;102378.28;6300747;22;19899;-87
2022/12/28 08:41:01;;;;;;;;;;;;;;;16.25;25.25;102377.66;6295685;22;19935;-87
2022/12/28 08:43:27;;;;;;;7.53;2.10;;;;;;;16.40;24.74;102366.22;6290825;22;19899;-88
2022/12/28 08:46:10;;;;;;;;;;;;;;;17.65;23.49;102384.75;6292420;22;20023;-88
2022/12/28 08:48:35;;;;;;;8.05;2.20;;;;;;;18.01;23.09;102367.34;6293454;22;19910;-90
2022/12/28 08:51:01;;;;;;;;;;;;;;;18.35;22.36;102375.31;6297282;22;19996;-87
2022/12/28 08:53:27;;;;;;;6.72;2.30;;;;;;;18.71;22.51;102375.81;6291165;22;19899;-89
2022/12/28 08:55:52;;;;;;;;;;;;;;;19.14;21.46;102370.94;6292109;22;20014;-88
2022/12/28 08:58:18;;;;;;;7.18;2.58;;;;;;;18.77;21.37;102334.25;6290986;22;19903;-87
2022/12/28 09:00:43;;;;;;;6.82;2.22;;;;;;;17.80;22.46;102370.50;6293940;22;20065;-86
2022/12/28 09:03:09;;;;;;;4.75;2.00;;;;;;;18.43;21.68;102328.19;6265022;22;20003;-88
2022/12/28 09:05:37;;;;;;;;;;;;;;;17.08;22.29;102358.19;6265227;22;19999;-86
2022/12/28 09:08:03;;;;;;;5.22;1.95;;;;;;;17.58;22.43;102333.88;6287742;22;19992;-87
2022/12/28 09:10:29;;;;;;;;;;;;;;;20.66;19.44;102353.03;6241621;22;20007;-88
2022/12/28 09:12:54;;;;;;;3.50;1.55;;;;;;;22.51;16.95;102354.56;6292131;22;19946;-88
2022/12/28 09:15:20;;;;;;;3.22;1.40;;;;;;;22.74;16.31;102311.28;6265531;22;20114;-89
2022/12/28 09:17:45;;;;;;;3.17;1.67;;;;;;;21.77;16.45;102342.06;6264099;22;20015;-90
2022/12/28 09:20:11;;;;;;;4.97;1.40;;;;;;;20.14;17.73;102333.88;6263680;22;20004;-86
2022/12/28 09:22:36;;;;;;;4.07;1.52;;;;;;;19.10;18.92;102346.94;6263521;22;20006;-88
2022/12/28 09:25:02;;;;;;;4.63;1.60;;;;;;;17.74;20.00;102344.81;6262134;22;20065;-87
2022/12/28 09:27:27;;;;;;;2.72;1.40;;;;;;;17.20;20.21;102361.47;6294203;22;19995;-87
2022/12/28 09:29:53;;;;;;;;;;;;;;;17.29;20.10;102365.91;6292354;22;20310;-87
2022/12/28 09:32:18;;;;;;;4.47;1.20;;;;;;;17.22;20.35;102331.41;6288075;22;19911;-89
2022/12/28 09:34:44;;;;;;;;;;;;;;;15.93;21.36;102361.91;6236285;22;20020;-87
2022/12/28 09:37:09;;;;;;;5.03;1.17;;;;;;;14.77;21.96;102330.88;6285548;22;20314;-87
2022/12/28 09:39:37;;;;;;;;;;;;;;;14.45;22.49;102364.56;6263104;22;20069;-86
2022/12/28 09:42:09;;;;;;;6.75;1.17;;;;;;;13.87;22.80;102337.56;6290877;22;19909;-87
2022/12/28 09:44:45;;;;;;;4.88;1.67;;;;;;;14.10;22.83;102336.25;6263510;22;20025;-87
2022/12/28 09:47:24;;;;;;;4.68;1.70;;;;;;;14.17;23.23;102319.47;6290715;22;19999;-89
2022/12/28 09:50:15;;;;;;;4.93;1.92;;;;;;;14.18;23.72;102342.81;6261978;22;20006;-87
2022/12/28 09:53:05;;;;;;;8.75;1.67;;;;;;;13.87;24.35;102351.06;6286913;22;20073;-87
2022/12/28 09:55:35;;;;;;;4.35;1.92;;;;;;;13.76;24.41;102356.59;6291420;22;19999;-86
2022/12/28 09:58:01;;;;;;;3.65;1.75;;;;;;;13.33;25.11;102320.00;6264289;22;20000;-88
2022/12/28 10:00:46;;;;;;;5.82;2.20;;;;;;;13.63;25.11;102337.97;6264782;22;20102;-89
2022/12/28 10:03:12;;;;;;;;;;;;;;;14.09;24.37;102348.09;6263226;22;20003;-87
2022/12/28 10:05:37;;;;;;;4.10;1.70;;;;;;;13.83;24.06;102315.34;6290678;22;19899;-88
2022/12/28 10:08:03;;;;;;;4.47;1.75;;;;;;;14.13;24.23;102314.31;6263934;22;19995;-88
2022/12/28 10:10:29;;;;;;;;;;;;;;;14.50;23.15;102348.75;6291937;22;20000;-87
2022/12/28 10:12:54;;;;;;;4.28;1.60;;;;;;;17.62;20.72;102340.72;6270416;22;19906;-89
2022/12/28 10:15:21;;;;;;;;;;;;;;;19.04;19.30;102326.69;6275102;22;20072;-88
2022/12/28 10:17:46;;;;;;;5.47;1.80;;;;;;;17.77;20.52;102300.97;6298740;22;19937;-86
2022/12/28 10:20:16;;;;;;;;;;;;;;;19.29;18.33;102329.28;6266895;22;20425;-87
2022/12/28 10:22:41;;;;;;;3.80;1.48;;;;;;;17.20;19.80;102336.16;6290853;22;19910;-86
2022/12/28 10:25:13;;;;;;;;;;;;;;;16.74;21.06;102335.56;6288262;22;19995;-88
2022/12/28 10:27:39;;;;;;;3.55;1.40;;;;;;;15.52;21.99;102317.22;6286135;22;19963;-87
2022/12/28 10:30:13;;;;;;;4.97;1.73;;;;;;;14.42;23.53;102339.63;6261560;22;20000;-88
2022/12/28 10:32:58;;;;;;;3.58;1.48;;;;;;;17.30;21.08;102339.59;6264806;22;20004;-89
2022/12/28 10:35:26;;;;;;;4.97;1.70;;;;;;;18.01;19.75;102321.91;6293731;22;20000;-86
2022/12/28 10:37:56;;;;;;;5.03;1.70;;;;;;;19.43;18.87;102294.97;6289370;22;20076;-88
2022/12/28 10:40:30;;;;;;;3.63;1.60;;;;;;;19.15;18.31;102298.19;6263953;22;20102;-87
2022/12/28 10:42:56;;;;;;;4.43;1.90;;;;;;;18.33;18.75;102312.91;6270232;22;20007;-87
2022/12/28 10:45:22;;;;;;;;;;;;;;;18.34;19.42;102328.19;6273356;22;20018;-88
2022/12/28 10:47:49;;;;;;;4.97;1.77;;;;;;;17.71;19.91;102317.94;6300822;22;19934;-87
2022/12/28 10:50:49;;;;;;;3.88;1.70;;;;;;;16.68;20.57;102337.06;6276061;22;20051;-83
2022/12/28 10:53:16;;;;;;;3.40;1.70;;;;;;;16.15;21.27;102330.72;6292573;22;20098;-86
2022/12/28 10:55:41;;;;;;;5.97;1.70;;;;;;;15.89;22.61;102286.44;6291470;22;20007;-88
2022/12/28 10:58:20;;;;;;;5.72;1.98;;;;;;;16.54;22.64;102324.94;6267525;22;20087;-86
2022/12/28 11:00:53;;;;;;;5.30;2.03;;;;;;;16.95;22.06;102295.31;6265403;22;20364;-86
2022/12/28 11:03:23;;;;;;;5.07;1.67;;;;;;;17.08;21.94;102312.00;6263811;22;20064;-88
2022/12/28 11:05:49;;;;;;;5.43;1.80;;;;;;;16.38;23.11;102311.25;6267628;22;20055;-88
2022/12/28 11:08:14;;;;;;;;;;;;;;;15.35;25.19;102322.47;6264806;22;20049;-87
2022/12/28 11:10:40;;;;;;;5.72;2.00;;;;;;;15.06;25.52;102305.56;6291145;22;20282;-87
2022/12/28 11:13:08;;;;;;;;;;;;;;;14.07;27.58;102322.16;6264120;22;20324;-86
2022/12/28 11:15:34;;;;;;;5.43;2.10;;;;;;;15.25;25.83;102304.59;6289764;22;19899;-88
2022/12/28 11:18:16;;;;;;;5.38;1.98;;;;;;;16.87;24.18;102325.16;6263124;22;20007;-87
2022/12/28 11:20:44;;;;;;;4.32;1.83;;;;;;;18.08;22.98;102297.59;6262326;22;20034;-87
2022/12/28 11:23:22;;;;;;;6.55;2.30;;;;;;;19.65;20.59;102304.22;6245574;22;20413;-89
2022/12/28 11:25:48;;;;;;;4.18;1.55;;;;;;;20.31;18.80;102302.66;6274083;22;19991;-88
2022/12/28 11:28:22;;;;;;;4.47;2.00;;;;;;;20.87;19.71;102291.31;6301306;22;19998;-88
2022/12/28 11:30:49;;;;;;;4.10;1.67;;;;;;;21.23;19.34;102306.91;6266159;22;20015;-88
2022/12/28 11:33:37;;;;;;;4.35;1.90;;;;;;;20.76;20.02;102310.94;6263701;22;20015;-87
2022/12/28 11:36:02;;;;;;;3.95;1.70;;;;;;;22.14;19.11;102305.34;6289941;22;19996;-89
2022/12/28 11:38:45;;;;;;;3.97;1.77;;;;;;;21.45;19.21;102286.81;6239407;22;20435;-88
2022/12/28 11:41:23;;;;;;;3.78;1.70;;;;;;;21.09;18.80;102273.09;6266954;22;20003;-89
2022/12/28 11:43:52;;;;;;;3.22;1.50;;;;;;;20.91;17.10;102287.19;6268510;22;20033;-87
2022/12/28 11:46:20;;;;;;;4.93;1.50;;;;;;;20.54;17.47;102294.41;6266171;22;19999;-88
2022/12/28 11:48:48;;;;;;;4.15;1.50;;;;;;;19.22;18.64;102293.72;6294732;22;20000;-89
2022/12/28 11:51:15;;;;;;;3.47;1.60;;;;;;;19.19;19.59;102286.75;6290058;22;19999;-87
2022/12/28 11:53:43;;;;;;;3.60;1.73;;;;;;;18.96;19.11;102291.28;6289860;22;19991;-90
2022/12/28 11:56:13;;;;;;;3.33;1.48;;;;;;;19.73;18.01;102279.63;6292490;22;20067;-87
2022/12/28 11:58:38;;;;;;;2.88;1.40;;;;;;;19.10;20.04;102279.63;6269816;22;20011;-88
2022/12/28 12:01:04;;;;;;;5.53;1.52;;;;;;;18.00;22.10;102245.88;6290305;22;20008;-88
2022/12/28 12:03:58;;;;;;;5.22;1.70;;;;;;;18.91;21.96;102289.09;6270774;22;19999;-85
2022/12/28 12:06:42;;;;;;;5.22;1.60;;;;;;;17.92;22.65;102258.47;6294984;22;20102;-88
2022/12/28 12:09:38;;;;;;;6.47;1.80;;;;;;;18.05;23.27;102281.59;6301906;22;20074;-86